Albion, Pennsylvania
Current Conditions -  °F | °C
As of 5:51 PM on Saturday 22 Nov 2014 (Local Time) from KERI Reporting Station
Light Rain Light Rain  
Wind Chill: 35°   Ceiling: 2900
Heat Index: 43°   Visibility: 6mi
Dew Point: 37°   Wind: 17mph
Humidity: 80%   Direction: 200°SSW
Pressure: 30.03"   Gusts: NA
Location:  41.89°N, 80.36°W
Report Text: KERI 222251Z 20015KT 6SM -RA BKN029 BKN039 OVC060 06/03 A3003 RMK AO2 PK WND 20028/2157 RAB00 SLP177 P0003 T00610028
Loading
Personal Weather Stations






























Interactive Weather Map New forecast layout! Learn more

10-Day Weather Forecast

Advertisements
Track Severe Weather on mobile